Flight Track Log - Related Links

Times and Time Zones

All times are in EDT time to prevent confusion due to time zone crossing. See the AWE1940 flight status page for this flight to view local times or setup timezone preferences in your user account.

Time Position Orientation Groundspeed Altitude Reporting Facility
EDT Latitude Longitude Course Direction KTS MPH feet Rate Location/Type
Sat 06:35:19 PM 29.9594 -95.3414 90° East 175 201 1,000  Level Houston Center
Sat 06:36:07 PM 29.9508 -95.2942 102° East 213 245 2,300 1,747 Climbing Houston Center
Sat 06:36:38 PM 29.9506 -95.2589 91° East 220 253 3,300 2,471 Climbing Houston Center
Sat 06:37:15 PM 29.9442 -95.1986 97° East 278 320 5,100 3,061 Climbing Houston Center
Sat 06:38:00 PM 29.9833 -94.8399 90° East  Level FlightAware Approximate
Sat 06:38:16 PM 29.9483 -95.1089 87° East 279 321 8,300  Level Houston Center
Sat 06:39:00 PM 29.9834 -94.7165 90° East  Level FlightAware Approximate
Sat 06:39:42 PM 29.9572 -94.9819 85° East 303 349 11,100  Level Houston Center
Sat 06:40:00 PM 29.9833 -94.5932 90° East  Level FlightAware Approximate
Sat 06:40:44 PM 29.9642 -94.8653 86° East 357 411 13,100  Level Houston Center
Sat 06:41:45 PM 29.9736 -94.7414 85° East 384 442 15,500 2,244 Climbing Houston Center
Sat 06:42:47 PM 29.9878 -94.6153 83° East 395 455 17,700 2,032 Climbing Houston Center
Sat 06:43:49 PM 30.0019 -94.4831 83° East 408 470 19,700 2,000 Climbing Houston Center
Sat 06:44:50 PM 30.0194 -94.3214 83° East 425 489 21,800 1,854 Climbing Houston Center
Sat 06:45:52 PM 30.0342 -94.1839 83° East 433 498 23,500 1,561 Climbing Houston Center
Sat 06:46:53 PM 30.0478 -94.0414 84° East 445 512 25,000 1,415 Climbing Houston Center
Sat 06:47:55 PM 30.0622 -93.8989 83° East 449 517 26,400 1,306 Climbing Houston Center
Sat 06:48:57 PM 30.0775 -93.7517 83° East 459 528 27,700 1,659 Climbing Houston Center
Sat 06:49:58 PM 30.0917 -93.6067 84° East 461 531 29,800 1,610 Climbing Houston Center
Sat 06:51:00 PM 30.1064 -93.4386 84° East 443 510 31,000 1,415 Climbing Houston Center
Sat 06:52:01 PM 30.1206 -93.2997 83° East 441 507 32,700 1,220 Climbing Houston Center
Sat 06:53:03 PM 30.1333 -93.1619 84° East 437 503 33,500 780 Climbing Houston Center
Sat 06:54:04 PM 30.1736 -93.0322 70° East 435 501 34,300 732 Climbing Houston Center
Sat 06:55:06 PM 30.2311 -92.9094 62° Northeast 435 501 35,000 339 Climbing Houston Center
Sat 06:56:08 PM 30.2864 -92.7844 63° Northeast 439 505 35,000  Level Houston Center
Sat 06:57:09 PM 30.3542 -92.6325 63° Northeast 443 510 35,000  Level Houston Center
Sat 06:58:11 PM 30.4094 -92.5081 63° Northeast 439 505 35,000  Level Houston Center
Sat 06:59:12 PM 30.4633 -92.3828 63° Northeast 436 502 35,000  Level Houston Center
Sat 07:00:14 PM 30.5164 -92.2633 63° Northeast 438 504 35,000  Level Houston Center
Sat 07:01:16 PM 30.5711 -92.1386 63° Northeast 437 503 35,000  Level Houston Center
Sat 07:02:17 PM 30.6378 -91.9889 63° Northeast 438 504 35,000  Level Houston Center
Sat 07:03:19 PM 30.6936 -91.8639 63° Northeast 438 504 35,000  Level Houston Center
Sat 07:04:21 PM 30.7478 -91.7381 63° Northeast 438 504 35,000  Level Houston Center
Sat 07:05:22 PM 30.8033 -91.6114 63° Northeast 441 507 35,000  Level Houston Center
Sat 07:06:24 PM 30.8578 -91.4858 63° Northeast 440 506 35,000  Level Houston Center
Sat 07:07:25 PM 30.9128 -91.3597 63° Northeast 440 506 35,000  Level Houston Center
Sat 07:08:27 PM 30.9781 -91.2067 64° Northeast 440 506 35,000 -48 Level Houston Center
Sat 07:09:29 PM 31.0328 -91.0814 63° Northeast 440 506 34,900  Descending Houston Center
Sat 07:10:30 PM 31.0864 -90.9542 64° Northeast 437 503 35,000  Climbing Houston Center
Sat 07:11:32 PM 31.1414 -90.8258 63° Northeast 440 506 34,900 -49 Descending Houston Center
Sat 07:12:33 PM 31.1958 -90.6983 63° Northeast 440 506 34,900 49 Level Houston Center
Sat 07:13:35 PM 31.2503 -90.5689 64° Northeast 441 507 35,000 48 Climbing Houston Center
Sat 07:14:37 PM 31.3047 -90.4411 63° Northeast 440 506 35,000 -49 Level Houston Center
Sat 07:15:38 PM 31.3586 -90.3122 64° Northeast 441 507 34,900  Descending Houston Center
Sat 07:16:40 PM 31.4125 -90.1839 64° Northeast 438 504 35,000 49 Climbing Houston Center
Sat 07:17:41 PM 31.4772 -90.0292 64° Northeast 439 505 35,000  Level Houston Center
Sat 07:18:43 PM 31.5308 -89.9014 64° Northeast 438 504 35,000  Level Houston Center
Sat 07:19:44 PM 31.5833 -89.7733 64° Northeast 435 501 35,000  Level Houston Center
Sat 07:20:46 PM 31.6367 -89.6447 64° Northeast 437 503 35,000  Level Houston Center
Sat 07:21:47 PM 31.6931 -89.5061 64° Northeast 440 506 35,000  Level Houston Center
Sat 07:22:49 PM 31.7464 -89.3747 64° Northeast 445 512 35,000  Level Houston Center
Sat 07:23:51 PM 31.7994 -89.2442 64° Northeast 443 510 35,000  Level Houston Center
Sat 07:24:52 PM 31.8528 -89.1147 64° Northeast 440 506 35,000  Level Houston Center
Sat 07:25:43 PM 31.8964 -89.0092 64° Northeast 430 495 35,000  Level Memphis Center
Sat 07:26:43 PM 31.9511 -88.8736 65° Northeast 430 495 35,000  Level Memphis Center
Sat 07:28:44 PM 32.0542 -88.6186 64° Northeast 440 506 35,000  Level Atlanta Center
Sat 07:29:44 PM 32.1089 -88.4867 64° Northeast 440 506 35,000  Level Atlanta Center
Sat 07:30:44 PM 32.1594 -88.3567 65° Northeast 440 506 35,000  Level Atlanta Center
Sat 07:31:44 PM 32.2142 -88.2242 64° Northeast 440 506 35,000  Level Atlanta Center
Sat 07:32:44 PM 32.2667 -88.0917 65° Northeast 440 506 35,000  Level Atlanta Center
Sat 07:33:44 PM 32.3167 -87.9589 66° East 440 506 35,000  Level Atlanta Center
Sat 07:34:44 PM 32.3647 -87.8281 66° East 435 501 35,000  Level Atlanta Center
Sat 07:35:44 PM 32.4167 -87.6925 66° East 435 501 35,000  Level Atlanta Center
Sat 07:36:44 PM 32.4625 -87.5567 68° East 435 501 35,000  Level Atlanta Center
Sat 07:37:44 PM 32.5122 -87.4183 67° East 446 513 35,000  Level Atlanta Center
Sat 07:38:44 PM 32.5578 -87.2794 69° East 446 513 35,000  Level Atlanta Center
Sat 07:39:44 PM 32.6094 -87.1408 66° East 451 519 35,000  Level Atlanta Center
Sat 07:40:44 PM 32.6586 -87.0044 67° East 451 519 35,000  Level Atlanta Center
Sat 07:41:44 PM 32.7100 -86.8656 66° East 451 519 35,000  Level Atlanta Center
Sat 07:42:44 PM 32.7547 -86.7261 69° East 451 519 35,000  Level Atlanta Center
Sat 07:43:44 PM 32.8078 -86.5844 66° East 451 519 35,000  Level Atlanta Center
Sat 07:44:44 PM 32.8544 -86.4447 68° East 451 519 35,000  Level Atlanta Center
Sat 07:45:44 PM 32.9072 -86.2978 67° East 456 525 35,000  Level Atlanta Center
Sat 07:46:44 PM 32.9558 -86.1531 68° East 456 525 35,000  Level Atlanta Center
Sat 07:47:44 PM 33.0061 -86.0081 68° East 463 533 35,000  Level Atlanta Center
Sat 07:48:44 PM 33.0544 -85.8656 68° East 463 533 35,000  Level Atlanta Center
Sat 07:49:44 PM 33.1022 -85.7225 68° East 469 540 35,000  Level Atlanta Center
Sat 07:50:44 PM 33.1542 -85.5797 66° East 464 534 35,000 -200 Level Atlanta Center
Sat 07:51:44 PM 33.2042 -85.4267 69° East 465 535 34,600 -700 Descending Atlanta Center
Sat 07:52:44 PM 33.2536 -85.2808 68° East 452 520 33,600 -800 Descending Atlanta Center
Sat 07:53:44 PM 33.2989 -85.1422 69° East 452 520 33,000 -300 Descending Atlanta Center
Sat 07:54:44 PM 33.3481 -84.9986 68° East 452 520 33,000  Level Atlanta Center
Sat 07:55:44 PM 33.3928 -84.8597 69° East 452 520 33,000  Level Atlanta Center
Sat 07:56:44 PM 33.4417 -84.7158 68° East 452 520 33,000  Level Atlanta Center
Sat 07:57:44 PM 33.4864 -84.5719 70° East 452 520 33,000  Level Atlanta Center
Sat 07:58:44 PM 33.5328 -84.4300 69° East 452 520 33,000  Level Atlanta Center
Sat 07:59:44 PM 33.5789 -84.2831 69° East 452 520 33,000  Level Atlanta Center
Sat 08:00:44 PM 33.6253 -84.1386 69° East 452 520 33,000  Level Atlanta Center
Sat 08:01:44 PM 33.6753 -83.9939 67° East 458 527 33,000  Level Atlanta Center
Sat 08:02:44 PM 33.7211 -83.8464 69° East 464 534 33,000  Level Atlanta Center
Sat 08:03:44 PM 33.7686 -83.7039 68° East 464 534 33,000  Level Atlanta Center
Sat 08:04:44 PM 33.8142 -83.5564 70° East 470 541 33,000  Level Atlanta Center
Sat 08:05:44 PM 33.8575 -83.4233 69° East 470 541 33,000  Level Atlanta Center
Sat 08:06:44 PM 33.9108 -83.2778 66° East 470 541 33,000  Level Atlanta Center
Sat 08:07:44 PM 33.9767 -83.1419 60° Northeast 470 541 33,000  Level Atlanta Center
Sat 08:08:44 PM 34.0425 -83.0033 60° Northeast 475 547 33,000 -450 Level Atlanta Center
Sat 08:09:44 PM 34.1058 -82.8622 62° Northeast 475 547 32,100 -950 Descending Atlanta Center
Sat 08:10:44 PM 34.1753 -82.7231 59° Northeast 475 547 31,100 -1,000 Descending Atlanta Center
Sat 08:11:44 PM 34.2508 -82.5711 59° Northeast 470 541 30,100 -1,100 Descending Atlanta Center
Sat 08:12:44 PM 34.3161 -82.4342 60° Northeast 470 541 28,900 -2,350 Descending Atlanta Center
Sat 08:13:44 PM 34.3831 -82.2944 60° Northeast 470 541 25,400 -3,150 Descending Atlanta Center
Sat 08:14:44 PM 34.4456 -82.1572 61° Northeast 464 534 22,600 -2,300 Descending Atlanta Center
Sat 08:15:44 PM 34.5000 -82.0375 61° Northeast 440 506 20,800 -2,150 Descending Atlanta Center
Sat 08:16:44 PM 34.5525 -81.9303 59° Northeast 398 458 18,300 -2,350 Descending Atlanta Center
Sat 08:17:44 PM 34.6028 -81.8231 60° Northeast 373 429 16,100 -2,100 Descending Atlanta Center
Sat 08:18:44 PM 34.6450 -81.7361 59° Northeast 340 391 14,100 -2,165 Descending Atlanta Center
Sat 08:19:21 PM 34.6811 -81.6594 60° Northeast 341 392 12,600 -1,550 Descending Atlanta Center
Sat 08:20:44 PM 34.7433 -81.5311 59° Northeast 335 386 11,000 -713 Descending Atlanta Center
Sat 08:21:44 PM 34.8003 -81.4586 46° Northeast 309 356 10,900 -750 Descending Atlanta Center
Sat 08:22:44 PM 34.8508 -81.3861 50° Northeast 289 333 9,500 -1,250 Descending Atlanta Center
Sat 08:23:44 PM 34.8761 -81.2994 70° East 272 313 8,400 -1,050 Descending Atlanta Center
Sat 08:24:44 PM 34.8992 -81.2200 70° East 252 290 7,400 -900 Descending Atlanta Center
Sat 08:25:44 PM 34.9206 -81.1483 70° East 237 273 6,600 -850 Descending Atlanta Center
Sat 08:26:44 PM 34.9419 -81.0767 70° East 230 265 5,700 -800 Descending Atlanta Center
Sat 08:27:44 PM 34.9672 -81.0047 67° East 230 265 5,000 -700 Descending Atlanta Center

Login

Don't have an account? Register now (free) for customized features, flight alerts, and more!